Flight Track Log - Related Links

Times and Time Zones

All times are in EDT time to prevent confusion due to time zone crossing. See the FLG4099 flight status page for this flight to view local times or setup timezone preferences in your user account.

Time Position Orientation Groundspeed Altitude Reporting Facility
EDT Latitude Longitude Course Direction KTS MPH feet Rate Location/Type
Fri 06:15:03 AM 44.3931 -73.3553 255° West 265 305 7,800  Level Boston Center
Fri 06:16:00 AM 44.3544 -73.7861 259° West  Level FlightAware Approximate
Fri 06:16:03 AM 44.3756 -73.4625 257° West 277 319 10,000  Level Boston Center
Fri 06:17:00 AM 44.3360 -73.9147 259° West  Level FlightAware Approximate
Fri 06:17:15 AM 44.3536 -73.5897 256° West 317 365 10,500  Level Boston Center
Fri 06:18:00 AM 44.3134 -74.0419 256° West  Level FlightAware Approximate
Fri 06:18:15 AM 44.3203 -73.7633 255° West 361 415 13,100  Level Boston Center
Fri 06:19:00 AM 44.2900 -74.1688 256° West  Level FlightAware Approximate
Fri 06:19:15 AM 44.2958 -73.8992 256° West 366 421 15,100  Level Boston Center
Fri 06:20:00 AM 44.2664 -74.2957 255° West  Level FlightAware Approximate
Fri 06:20:15 AM 44.2692 -74.0317 254° West 366 421 16,600  Level Boston Center
Fri 06:21:15 AM 44.2464 -74.1528 255° West 366 421 17,900 1,400 Climbing Boston Center
Fri 06:22:15 AM 44.2214 -74.2883 256° West 361 415 19,400 1,300 Climbing Boston Center
Fri 06:23:15 AM 44.1922 -74.4236 253° West 361 415 20,500 1,050 Climbing Boston Center
Fri 06:24:15 AM 44.1667 -74.5644 256° West 366 421 21,500 1,000 Climbing Boston Center
Fri 06:25:15 AM 44.1389 -74.7053 255° West 376 433 22,500 1,000 Climbing Boston Center
Fri 06:26:15 AM 44.1111 -74.8458 255° West 376 433 23,500 1,000 Climbing Boston Center
Fri 06:27:15 AM 44.0831 -74.9892 255° West 376 433 24,500 1,000 Climbing Boston Center
Fri 06:28:15 AM 44.0547 -75.1297 254° West 376 433 25,500 900 Climbing Boston Center
Fri 06:29:15 AM 44.0314 -75.2383 253° West 376 433 26,300 700 Climbing Boston Center
Fri 06:30:15 AM 43.9978 -75.4100 255° West 376 433 26,900 550 Climbing Boston Center
Fri 06:31:15 AM 43.9669 -75.5556 254° West 381 438 27,400 500 Climbing Boston Center
Fri 06:32:15 AM 43.9358 -75.7011 254° West 387 445 27,900 300 Climbing Boston Center
Fri 06:33:15 AM 43.9064 -75.8494 255° West 397 457 28,000 34 Climbing Boston Center
Fri 06:35:09 AM 43.8367 -76.1542 252° West 410 472 28,000  Level Cleveland Center
Fri 06:35:30 AM 43.8167 -76.1667 204° Southwest 420 483 28,000  Level Toronto Center
Fri 06:36:30 AM 43.7500 -76.3333 241° Southwest 420 483 28,000  Level Toronto Center
Fri 06:37:30 AM 43.7000 -76.4667 243° Southwest 430 495 28,000  Level Toronto Center
Fri 06:38:30 AM 43.6333 -76.6333 241° Southwest 430 495 28,000  Level Toronto Center
Fri 06:39:30 AM 43.6000 -76.7833 253° West 430 495 28,000  Level Toronto Center
Fri 06:40:09 AM 43.5728 -76.8983 252° West 437 503 28,000  Level Cleveland Center
Fri 06:41:09 AM 43.5192 -77.0475 244° Southwest 442 509 28,000  Level Cleveland Center
Fri 06:42:09 AM 43.4653 -77.1967 244° Southwest 442 509 28,000  Level Cleveland Center
Fri 06:43:09 AM 43.4172 -77.3336 244° Southwest 431 496 28,000  Level Cleveland Center
Fri 06:44:09 AM 43.3706 -77.4617 243° Southwest 406 467 28,000  Level Cleveland Center
Fri 06:45:09 AM 43.3156 -77.5900 240° Southwest 394 453 28,000  Level Cleveland Center
Fri 06:46:09 AM 43.2542 -77.7128 236° Southwest 394 453 28,000  Level Cleveland Center
Fri 06:47:09 AM 43.1903 -77.8353 234° Southwest 401 461 28,000  Level Cleveland Center
Fri 06:48:09 AM 43.1267 -77.9578 235° Southwest 407 468 28,000  Level Cleveland Center
Fri 06:49:09 AM 43.0686 -78.0739 236° Southwest 407 468 28,000  Level Cleveland Center
Fri 06:50:09 AM 43.0067 -78.1928 235° Southwest 407 468 28,000  Level Cleveland Center
Fri 06:51:09 AM 42.9444 -78.3169 236° Southwest 407 468 28,000  Level Cleveland Center
Fri 06:52:09 AM 42.8822 -78.4411 236° Southwest 407 468 28,000  Level Cleveland Center
Fri 06:53:09 AM 42.8219 -78.5594 235° Southwest 402 463 28,000  Level Cleveland Center
Fri 06:54:09 AM 42.7614 -78.6828 236° Southwest 402 463 28,000  Level Cleveland Center
Fri 06:55:09 AM 42.7008 -78.8061 236° Southwest 402 463 28,000  Level Cleveland Center
Fri 06:56:09 AM 42.6422 -78.9236 236° Southwest 402 463 28,000  Level Cleveland Center
Fri 06:57:10 AM 42.5814 -79.0464 236° Southwest 402 463 28,000  Level Cleveland Center
Fri 06:58:09 AM 42.5414 -79.1769 247° West 392 451 28,000  Level Cleveland Center
Fri 06:59:09 AM 42.5575 -79.3175 279° West 366 421 28,000  Level Cleveland Center
Fri 07:00:09 AM 42.5736 -79.4583 279° West 371 427 28,000  Level Cleveland Center
Fri 07:01:09 AM 42.5853 -79.5989 276° West 377 434 28,000  Level Cleveland Center
Fri 07:02:09 AM 42.5989 -79.7428 277° West 388 447 28,000  Level Cleveland Center
Fri 07:03:09 AM 42.6186 -79.8919 280° West 388 447 28,000  Level Cleveland Center
Fri 07:04:09 AM 42.6278 -80.0469 275° West 403 464 28,000  Level Cleveland Center
Fri 07:05:09 AM 42.6450 -80.2133 278° West 408 470 28,000  Level Cleveland Center
Fri 07:06:09 AM 42.6581 -80.3658 277° West 408 470 28,000  Level Cleveland Center
Fri 07:07:09 AM 42.6728 -80.5156 278° West 420 483 28,000 -400 Level Cleveland Center
Fri 07:08:09 AM 42.6853 -80.6708 276° West 420 483 27,200 -900 Descending Cleveland Center
Fri 07:09:09 AM 42.7017 -80.8233 278° West 406 467 26,200 -1,000 Descending Cleveland Center
Fri 07:10:09 AM 42.6972 -80.9672 268° West 400 460 25,200 -1,000 Descending Cleveland Center
Fri 07:11:09 AM 42.6819 -81.1142 262° West 400 460 24,200 -600 Descending Cleveland Center
Fri 07:12:09 AM 42.6667 -81.2581 262° West 400 460 24,000 -100 Descending Cleveland Center
Fri 07:13:09 AM 42.6469 -81.4047 260° West 400 460 24,000 -500 Level Cleveland Center
Fri 07:14:09 AM 42.6311 -81.5511 262° West 395 455 23,000 -1,350 Descending Cleveland Center
Fri 07:15:09 AM 42.6133 -81.6892 260° West 384 442 21,300 -1,700 Descending Cleveland Center
Fri 07:16:09 AM 42.5972 -81.8269 261° West 378 435 19,600 -1,700 Descending Cleveland Center
Fri 07:17:09 AM 42.5792 -81.9647 260° West 373 429 17,900 -1,600 Descending Cleveland Center
Fri 07:18:09 AM 42.5650 -82.0942 262° West 368 423 16,400 -1,538 Descending Cleveland Center
Fri 07:18:27 AM 42.5622 -82.1308 264° West 352 405 15,900 -1,500 Descending Cleveland Center
Fri 07:19:09 AM 42.5486 -82.2233 259° West 363 418 14,900 -1,294 Descending Cleveland Center
Fri 07:20:09 AM 42.5319 -82.3497 260° West 352 405 13,700 -1,200 Descending Cleveland Center
Fri 07:21:09 AM 42.5175 -82.4789 261° West 352 405 12,500 -900 Descending Cleveland Center
Fri 07:22:09 AM 42.4864 -82.5964 250° West 347 399 11,900 -1,050 Descending Cleveland Center
Fri 07:23:09 AM 42.4386 -82.6989 238° Southwest 334 384 10,400 -1,300 Descending Cleveland Center
Fri 07:24:09 AM 42.4017 -82.7764 237° Southwest 296 341 9,300 -1,350 Descending Cleveland Center
Fri 07:25:09 AM 42.3733 -82.8400 239° Southwest 243 280 7,700 -1,150 Descending Cleveland Center
Fri 07:26:09 AM 42.3450 -82.9036 239° Southwest 215 247 7,000 -350 Descending Cleveland Center
Fri 07:27:09 AM 42.3292 -82.9678 252° West 194 223 7,000  Level Cleveland Center
Fri 07:28:09 AM 42.3936 -82.9814 351° North 142 163 7,000 -350 Level Cleveland Center
Fri 07:29:26 AM 42.4719 -83.0153 342° North 208 239 6,200 -438 Descending Cleveland Center
Fri 07:30:26 AM 42.5086 -83.0619 317° Northwest 182 209 6,000 -103 Descending Cleveland Center
Fri 07:31:22 AM 42.5181 -83.1072 286° West 156 180 6,000  Level Cleveland Center
Fri 07:32:22 AM 42.4819 -83.1394 213° Southwest 166 191 6,000 -149 Level Cleveland Center
Fri 07:33:23 AM 42.4414 -83.1717 210° Southwest 161 185 5,700 -590 Descending Cleveland Center
Fri 07:34:24 AM 42.4011 -83.2011 208° Southwest 156 180 4,800 -879 Descending Cleveland Center
Fri 07:35:19 AM 42.3672 -83.2278 210° Southwest 160 184 4,000 -836 Descending Cleveland Center
Fri 07:36:26 AM 42.3247 -83.2597 209° Southwest 146 168 3,100 -806 Descending Cleveland Center

Login

Don't have an account? Register now (free) for customized features, flight alerts, and more!